Аэропорт: Симферополь. Симферополь

ICAO: URFF

METAR:
2021-07-28 14:00:00
URFF 281400Z 26007MPS CAVOK 29/11 Q1017 R19/090095 NOSIG
METAR:
2021-07-28 10:50:00
TAF URFF 281050Z 2812/2912 28006G12MPS 9999 SCT030 TX31/2812Z TN17/2902Z BECMG 2816/2818 17003MPS FM290800 27005G11MPS CAVOK